sensor_id;sensor_type;location;lat;lon;timestamp;temperature;humidity
51655;DHT22;37732;53.106;7.030;2023-09-19T00:00:23;15.10;99.90
51655;DHT22;37732;53.106;7.030;2023-09-19T00:02:57;15.10;99.90
51655;DHT22;37732;53.106;7.030;2023-09-19T00:05:26;15.10;99.90
51655;DHT22;37732;53.106;7.030;2023-09-19T00:07:55;15.10;99.90
51655;DHT22;37732;53.106;7.030;2023-09-19T00:12:51;15.00;99.90
51655;DHT22;37732;53.106;7.030;2023-09-19T00:15:18;14.90;99.90
51655;DHT22;37732;53.106;7.030;2023-09-19T00:17:45;14.90;99.90
51655;DHT22;37732;53.106;7.030;2023-09-19T00:20:13;14.90;99.90
51655;DHT22;37732;53.106;7.030;2023-09-19T00:22:41;14.80;99.90
51655;DHT22;37732;53.106;7.030;2023-09-19T00:25:10;14.80;99.90
51655;DHT22;37732;53.106;7.030;2023-09-19T00:27:40;14.70;99.90
51655;DHT22;37732;53.106;7.030;2023-09-19T00:30:07;14.70;99.90
51655;DHT22;37732;53.106;7.030;2023-09-19T00:32:34;14.60;99.90
51655;DHT22;37732;53.106;7.030;2023-09-19T00:35:00;14.60;99.90
51655;DHT22;37732;53.106;7.030;2023-09-19T00:37:25;14.50;99.90
51655;DHT22;37732;53.106;7.030;2023-09-19T00:39:51;14.50;99.90
51655;DHT22;37732;53.106;7.030;2023-09-19T00:42:20;14.40;99.90
51655;DHT22;37732;53.106;7.030;2023-09-19T00:44:47;14.40;99.90
51655;DHT22;37732;53.106;7.030;2023-09-19T00:47:12;14.30;99.90
51655;DHT22;37732;53.106;7.030;2023-09-19T00:49:44;14.30;99.90
51655;DHT22;37732;53.106;7.030;2023-09-19T00:52:14;14.20;99.90
51655;DHT22;37732;53.106;7.030;2023-09-19T00:54:40;14.20;99.90
51655;DHT22;37732;53.106;7.030;2023-09-19T00:57:06;14.10;99.90
51655;DHT22;37732;53.106;7.030;2023-09-19T00:59:34;14.10;99.90
51655;DHT22;37732;53.106;7.030;2023-09-19T01:02:02;14.00;99.90
51655;DHT22;37732;53.106;7.030;2023-09-19T01:04:28;14.00;99.90
51655;DHT22;37732;53.106;7.030;2023-09-19T01:06:54;13.90;99.90
51655;DHT22;37732;53.106;7.030;2023-09-19T01:09:20;13.90;99.90
51655;DHT22;37732;53.106;7.030;2023-09-19T01:11:49;13.90;99.90
51655;DHT22;37732;53.106;7.030;2023-09-19T01:14:38;13.80;99.90
51655;DHT22;37732;53.106;7.030;2023-09-19T01:17:23;13.70;99.90
51655;DHT22;37732;53.106;7.030;2023-09-19T01:26:05;13.60;99.90
51655;DHT22;37732;53.106;7.030;2023-09-19T01:31:33;13.50;99.90
51655;DHT22;37732;53.106;7.030;2023-09-19T01:34:03;13.50;99.90
51655;DHT22;37732;53.106;7.030;2023-09-19T01:36:37;13.50;99.90
51655;DHT22;37732;53.106;7.030;2023-09-19T01:39:21;13.40;99.90
51655;DHT22;37732;53.106;7.030;2023-09-19T01:42:13;13.40;99.90
51655;DHT22;37732;53.106;7.030;2023-09-19T01:52:41;13.30;99.90
51655;DHT22;37732;53.106;7.030;2023-09-19T01:55:09;13.30;99.90
51655;DHT22;37732;53.106;7.030;2023-09-19T01:57:42;13.30;99.90
51655;DHT22;37732;53.106;7.030;2023-09-19T02:00:13;13.30;99.90
51655;DHT22;37732;53.106;7.030;2023-09-19T02:02:42;13.30;99.90
51655;DHT22;37732;53.106;7.030;2023-09-19T02:05:10;13.30;99.90
51655;DHT22;37732;53.106;7.030;2023-09-19T02:07:36;13.20;99.90
51655;DHT22;37732;53.106;7.030;2023-09-19T02:10:04;13.20;99.90
51655;DHT22;37732;53.106;7.030;2023-09-19T02:12:31;13.10;99.90
51655;DHT22;37732;53.106;7.030;2023-09-19T02:14:58;13.20;99.90
51655;DHT22;37732;53.106;7.030;2023-09-19T02:17:25;13.10;99.90
51655;DHT22;37732;53.106;7.030;2023-09-19T02:19:54;13.10;99.90
51655;DHT22;37732;53.106;7.030;2023-09-19T02:22:24;13.00;99.90
51655;DHT22;37732;53.106;7.030;2023-09-19T02:24:50;13.00;99.90
51655;DHT22;37732;53.106;7.030;2023-09-19T02:27:16;13.00;99.90
51655;DHT22;37732;53.106;7.030;2023-09-19T02:29:45;13.00;99.90
51655;DHT22;37732;53.106;7.030;2023-09-19T02:32:11;13.00;99.90
51655;DHT22;37732;53.106;7.030;2023-09-19T02:34:36;12.90;99.90
51655;DHT22;37732;53.106;7.030;2023-09-19T02:37:07;12.90;99.90
51655;DHT22;37732;53.106;7.030;2023-09-19T02:39:36;12.90;99.90
51655;DHT22;37732;53.106;7.030;2023-09-19T02:42:02;12.90;99.90
51655;DHT22;37732;53.106;7.030;2023-09-19T02:44:29;12.90;99.90
51655;DHT22;37732;53.106;7.030;2023-09-19T02:46:55;12.90;99.90
51655;DHT22;37732;53.106;7.030;2023-09-19T02:49:23;12.90;99.90
51655;DHT22;37732;53.106;7.030;2023-09-19T02:51:48;12.90;99.90
51655;DHT22;37732;53.106;7.030;2023-09-19T02:54:14;12.90;99.90
51655;DHT22;37732;53.106;7.030;2023-09-19T02:56:41;12.90;99.90
51655;DHT22;37732;53.106;7.030;2023-09-19T02:59:07;12.90;99.90
51655;DHT22;37732;53.106;7.030;2023-09-19T03:01:32;12.90;99.90
51655;DHT22;37732;53.106;7.030;2023-09-19T03:03:59;12.90;99.90
51655;DHT22;37732;53.106;7.030;2023-09-19T03:06:25;12.90;99.90
51655;DHT22;37732;53.106;7.030;2023-09-19T03:08:50;12.90;99.90
51655;DHT22;37732;53.106;7.030;2023-09-19T03:11:17;12.90;99.90
51655;DHT22;37732;53.106;7.030;2023-09-19T03:13:51;12.90;99.90
51655;DHT22;37732;53.106;7.030;2023-09-19T03:16:16;12.90;99.90
51655;DHT22;37732;53.106;7.030;2023-09-19T03:18:42;12.80;99.90
51655;DHT22;37732;53.106;7.030;2023-09-19T03:21:08;12.90;99.90
51655;DHT22;37732;53.106;7.030;2023-09-19T03:23:34;12.90;99.90
51655;DHT22;37732;53.106;7.030;2023-09-19T03:25:59;12.90;99.90
51655;DHT22;37732;53.106;7.030;2023-09-19T03:28:25;12.90;99.90
51655;DHT22;37732;53.106;7.030;2023-09-19T03:31:01;12.90;99.90
51655;DHT22;37732;53.106;7.030;2023-09-19T03:33:27;12.90;99.90
51655;DHT22;37732;53.106;7.030;2023-09-19T03:35:53;12.90;99.90
51655;DHT22;37732;53.106;7.030;2023-09-19T03:38:20;12.90;99.90
51655;DHT22;37732;53.106;7.030;2023-09-19T03:40:47;12.80;99.90
51655;DHT22;37732;53.106;7.030;2023-09-19T03:43:13;12.90;99.90
51655;DHT22;37732;53.106;7.030;2023-09-19T03:45:39;12.90;99.90
51655;DHT22;37732;53.106;7.030;2023-09-19T03:48:11;12.90;99.90
51655;DHT22;37732;53.106;7.030;2023-09-19T03:50:37;12.90;99.90
51655;DHT22;37732;53.106;7.030;2023-09-19T03:53:03;12.90;99.90
51655;DHT22;37732;53.106;7.030;2023-09-19T03:55:29;13.00;99.90
51655;DHT22;37732;53.106;7.030;2023-09-19T03:57:58;13.00;99.90
51655;DHT22;37732;53.106;7.030;2023-09-19T04:00:23;13.00;99.90
51655;DHT22;37732;53.106;7.030;2023-09-19T04:02:52;12.90;99.90
51655;DHT22;37732;53.106;7.030;2023-09-19T04:05:18;12.90;99.90
51655;DHT22;37732;53.106;7.030;2023-09-19T04:07:44;12.90;99.90
51655;DHT22;37732;53.106;7.030;2023-09-19T04:10:10;12.90;99.90
51655;DHT22;37732;53.106;7.030;2023-09-19T04:12:40;12.90;99.90
51655;DHT22;37732;53.106;7.030;2023-09-19T04:15:06;12.90;99.90
51655;DHT22;37732;53.106;7.030;2023-09-19T04:17:32;12.80;99.90
51655;DHT22;37732;53.106;7.030;2023-09-19T04:19:59;12.80;99.90
51655;DHT22;37732;53.106;7.030;2023-09-19T04:22:24;12.90;99.90
51655;DHT22;37732;53.106;7.030;2023-09-19T04:24:50;12.90;99.90
51655;DHT22;37732;53.106;7.030;2023-09-19T04:27:16;12.90;99.90
51655;DHT22;37732;53.106;7.030;2023-09-19T04:29:41;12.90;99.90
51655;DHT22;37732;53.106;7.030;2023-09-19T04:32:08;12.80;99.90
51655;DHT22;37732;53.106;7.030;2023-09-19T04:34:35;12.90;99.90
51655;DHT22;37732;53.106;7.030;2023-09-19T04:37:01;12.90;99.90
51655;DHT22;37732;53.106;7.030;2023-09-19T04:39:27;12.90;99.90
51655;DHT22;37732;53.106;7.030;2023-09-19T04:41:54;12.90;99.90
51655;DHT22;37732;53.106;7.030;2023-09-19T04:44:20;12.90;99.90
51655;DHT22;37732;53.106;7.030;2023-09-19T04:46:46;12.90;99.90
51655;DHT22;37732;53.106;7.030;2023-09-19T04:49:12;12.90;99.90
51655;DHT22;37732;53.106;7.030;2023-09-19T04:51:39;13.00;99.90
51655;DHT22;37732;53.106;7.030;2023-09-19T04:54:05;13.00;99.90
51655;DHT22;37732;53.106;7.030;2023-09-19T04:56:31;13.00;99.90
51655;DHT22;37732;53.106;7.030;2023-09-19T04:58:58;13.00;99.90
51655;DHT22;37732;53.106;7.030;2023-09-19T05:01:24;13.10;99.90
51655;DHT22;37732;53.106;7.030;2023-09-19T05:03:50;13.10;99.90
51655;DHT22;37732;53.106;7.030;2023-09-19T05:06:19;13.10;99.90
51655;DHT22;37732;53.106;7.030;2023-09-19T05:08:49;13.10;99.90
51655;DHT22;37732;53.106;7.030;2023-09-19T05:11:21;13.10;99.90
51655;DHT22;37732;53.106;7.030;2023-09-19T05:13:48;13.10;99.90
51655;DHT22;37732;53.106;7.030;2023-09-19T05:16:18;13.10;99.90
51655;DHT22;37732;53.106;7.030;2023-09-19T05:18:44;13.10;99.90
51655;DHT22;37732;53.106;7.030;2023-09-19T05:21:10;13.10;99.90
51655;DHT22;37732;53.106;7.030;2023-09-19T05:23:36;13.10;99.90
51655;DHT22;37732;53.106;7.030;2023-09-19T05:26:02;13.10;99.90
51655;DHT22;37732;53.106;7.030;2023-09-19T05:28:30;13.20;99.90
51655;DHT22;37732;53.106;7.030;2023-09-19T05:31:00;13.20;99.90
51655;DHT22;37732;53.106;7.030;2023-09-19T05:33:27;13.20;99.90
51655;DHT22;37732;53.106;7.030;2023-09-19T05:35:52;13.20;99.90
51655;DHT22;37732;53.106;7.030;2023-09-19T05:38:19;13.20;99.90
51655;DHT22;37732;53.106;7.030;2023-09-19T05:40:46;13.20;99.90
51655;DHT22;37732;53.106;7.030;2023-09-19T05:43:11;13.20;99.90
51655;DHT22;37732;53.106;7.030;2023-09-19T05:45:39;13.20;99.90
51655;DHT22;37732;53.106;7.030;2023-09-19T05:48:10;13.30;99.90
51655;DHT22;37732;53.106;7.030;2023-09-19T05:50:37;13.30;99.90
51655;DHT22;37732;53.106;7.030;2023-09-19T05:53:04;13.30;99.90
51655;DHT22;37732;53.106;7.030;2023-09-19T05:55:30;13.30;99.90
51655;DHT22;37732;53.106;7.030;2023-09-19T05:57:56;13.30;99.90
51655;DHT22;37732;53.106;7.030;2023-09-19T06:00:23;13.30;99.90
51655;DHT22;37732;53.106;7.030;2023-09-19T06:02:56;13.40;99.90
51655;DHT22;37732;53.106;7.030;2023-09-19T06:05:23;13.30;99.90
51655;DHT22;37732;53.106;7.030;2023-09-19T06:07:49;13.30;99.90
51655;DHT22;37732;53.106;7.030;2023-09-19T06:10:16;13.40;99.90
51655;DHT22;37732;53.106;7.030;2023-09-19T06:12:43;13.40;99.90
51655;DHT22;37732;53.106;7.030;2023-09-19T06:15:10;13.40;99.90
51655;DHT22;37732;53.106;7.030;2023-09-19T06:17:42;13.40;99.90
51655;DHT22;37732;53.106;7.030;2023-09-19T06:20:08;13.40;99.90
51655;DHT22;37732;53.106;7.030;2023-09-19T06:22:41;13.40;99.90
51655;DHT22;37732;53.106;7.030;2023-09-19T06:25:08;13.40;99.90
51655;DHT22;37732;53.106;7.030;2023-09-19T06:27:37;13.40;99.90
51655;DHT22;37732;53.106;7.030;2023-09-19T06:30:03;13.50;99.90
51655;DHT22;37732;53.106;7.030;2023-09-19T06:32:28;13.50;99.90
51655;DHT22;37732;53.106;7.030;2023-09-19T06:34:54;13.50;99.90
51655;DHT22;37732;53.106;7.030;2023-09-19T06:37:21;13.50;99.90
51655;DHT22;37732;53.106;7.030;2023-09-19T06:39:47;13.50;99.90
51655;DHT22;37732;53.106;7.030;2023-09-19T06:42:16;13.60;99.90
51655;DHT22;37732;53.106;7.030;2023-09-19T06:44:43;13.60;99.90
51655;DHT22;37732;53.106;7.030;2023-09-19T06:47:09;13.70;99.90
51655;DHT22;37732;53.106;7.030;2023-09-19T06:49:35;13.80;99.90
51655;DHT22;37732;53.106;7.030;2023-09-19T06:52:01;13.80;99.90
51655;DHT22;37732;53.106;7.030;2023-09-19T06:54:28;13.80;99.90
51655;DHT22;37732;53.106;7.030;2023-09-19T06:56:59;13.80;99.90
51655;DHT22;37732;53.106;7.030;2023-09-19T06:59:25;13.90;99.90
51655;DHT22;37732;53.106;7.030;2023-09-19T07:01:51;14.00;99.90
51655;DHT22;37732;53.106;7.030;2023-09-19T07:04:17;14.00;99.90
51655;DHT22;37732;53.106;7.030;2023-09-19T07:06:49;14.00;99.90
51655;DHT22;37732;53.106;7.030;2023-09-19T07:09:15;14.10;99.90
51655;DHT22;37732;53.106;7.030;2023-09-19T07:11:42;14.20;99.90
51655;DHT22;37732;53.106;7.030;2023-09-19T07:14:08;14.30;99.90
51655;DHT22;37732;53.106;7.030;2023-09-19T07:16:37;14.60;99.90
51655;DHT22;37732;53.106;7.030;2023-09-19T07:19:05;14.60;99.90
51655;DHT22;37732;53.106;7.030;2023-09-19T07:21:30;14.70;99.90
51655;DHT22;37732;53.106;7.030;2023-09-19T07:23:59;14.90;99.90
51655;DHT22;37732;53.106;7.030;2023-09-19T07:26:26;15.00;99.90
51655;DHT22;37732;53.106;7.030;2023-09-19T07:28:53;15.00;99.90
51655;DHT22;37732;53.106;7.030;2023-09-19T07:31:19;15.00;99.90
51655;DHT22;37732;53.106;7.030;2023-09-19T07:33:45;15.00;99.90
51655;DHT22;37732;53.106;7.030;2023-09-19T07:36:11;15.10;99.90
51655;DHT22;37732;53.106;7.030;2023-09-19T07:38:39;15.20;99.90
51655;DHT22;37732;53.106;7.030;2023-09-19T07:41:05;15.20;99.90
51655;DHT22;37732;53.106;7.030;2023-09-19T07:43:31;15.20;99.90
51655;DHT22;37732;53.106;7.030;2023-09-19T07:45:57;15.20;99.90
51655;DHT22;37732;53.106;7.030;2023-09-19T07:48:22;15.20;99.90
51655;DHT22;37732;53.106;7.030;2023-09-19T07:50:49;15.30;99.90
51655;DHT22;37732;53.106;7.030;2023-09-19T07:53:15;15.30;99.90
51655;DHT22;37732;53.106;7.030;2023-09-19T07:55:43;15.40;99.90
51655;DHT22;37732;53.106;7.030;2023-09-19T07:58:13;15.40;99.90
51655;DHT22;37732;53.106;7.030;2023-09-19T08:00:39;15.50;99.90
51655;DHT22;37732;53.106;7.030;2023-09-19T08:03:04;15.50;99.90
51655;DHT22;37732;53.106;7.030;2023-09-19T08:05:31;15.40;99.90
51655;DHT22;37732;53.106;7.030;2023-09-19T08:07:58;15.30;99.90
51655;DHT22;37732;53.106;7.030;2023-09-19T08:10:24;15.30;99.90
51655;DHT22;37732;53.106;7.030;2023-09-19T08:12:53;15.20;99.90
51655;DHT22;37732;53.106;7.030;2023-09-19T08:15:23;15.20;99.90
51655;DHT22;37732;53.106;7.030;2023-09-19T08:17:49;15.20;99.90
51655;DHT22;37732;53.106;7.030;2023-09-19T08:20:16;15.10;99.90
51655;DHT22;37732;53.106;7.030;2023-09-19T08:22:46;15.00;99.90
51655;DHT22;37732;53.106;7.030;2023-09-19T08:25:13;15.00;99.90
51655;DHT22;37732;53.106;7.030;2023-09-19T08:27:39;15.00;99.90
51655;DHT22;37732;53.106;7.030;2023-09-19T08:30:05;15.00;99.90
51655;DHT22;37732;53.106;7.030;2023-09-19T08:32:32;15.10;99.90
51655;DHT22;37732;53.106;7.030;2023-09-19T08:34:57;15.40;99.90
51655;DHT22;37732;53.106;7.030;2023-09-19T08:37:23;15.20;99.90
51655;DHT22;37732;53.106;7.030;2023-09-19T08:39:48;15.20;99.90
51655;DHT22;37732;53.106;7.030;2023-09-19T08:42:14;15.20;99.90
51655;DHT22;37732;53.106;7.030;2023-09-19T08:44:42;15.40;99.90
51655;DHT22;37732;53.106;7.030;2023-09-19T08:47:09;15.50;99.90
51655;DHT22;37732;53.106;7.030;2023-09-19T08:52:28;15.90;99.90
51655;DHT22;37732;53.106;7.030;2023-09-19T08:54:59;16.00;99.90
51655;DHT22;37732;53.106;7.030;2023-09-19T08:57:29;16.10;99.90
51655;DHT22;37732;53.106;7.030;2023-09-19T08:59:56;16.20;99.90
51655;DHT22;37732;53.106;7.030;2023-09-19T09:02:22;16.20;99.90
51655;DHT22;37732;53.106;7.030;2023-09-19T09:04:49;16.20;99.90
51655;DHT22;37732;53.106;7.030;2023-09-19T09:07:16;16.30;99.90
51655;DHT22;37732;53.106;7.030;2023-09-19T09:09:44;16.40;99.90
51655;DHT22;37732;53.106;7.030;2023-09-19T09:12:14;16.50;99.90
51655;DHT22;37732;53.106;7.030;2023-09-19T09:14:44;16.50;99.90
51655;DHT22;37732;53.106;7.030;2023-09-19T09:17:11;16.40;99.90
51655;DHT22;37732;53.106;7.030;2023-09-19T09:19:37;16.40;99.90
51655;DHT22;37732;53.106;7.030;2023-09-19T09:22:07;16.50;99.90
51655;DHT22;37732;53.106;7.030;2023-09-19T09:24:33;16.50;99.90
51655;DHT22;37732;53.106;7.030;2023-09-19T09:26:59;16.50;99.90
51655;DHT22;37732;53.106;7.030;2023-09-19T09:29:45;16.60;99.90
51655;DHT22;37732;53.106;7.030;2023-09-19T09:32:26;16.70;99.90
51655;DHT22;37732;53.106;7.030;2023-09-19T09:34:58;16.80;99.90
51655;DHT22;37732;53.106;7.030;2023-09-19T09:37:25;16.80;99.90
51655;DHT22;37732;53.106;7.030;2023-09-19T09:39:57;16.80;99.90
51655;DHT22;37732;53.106;7.030;2023-09-19T09:42:37;16.90;99.90
51655;DHT22;37732;53.106;7.030;2023-09-19T09:48:04;17.00;99.90
51655;DHT22;37732;53.106;7.030;2023-09-19T09:50:46;17.10;99.90
51655;DHT22;37732;53.106;7.030;2023-09-19T09:53:29;17.20;99.90
51655;DHT22;37732;53.106;7.030;2023-09-19T09:58:25;17.40;99.90
51655;DHT22;37732;53.106;7.030;2023-09-19T10:00:58;17.40;99.90
51655;DHT22;37732;53.106;7.030;2023-09-19T10:03:36;17.40;99.90
51655;DHT22;37732;53.106;7.030;2023-09-19T10:06:10;17.40;99.90
51655;DHT22;37732;53.106;7.030;2023-09-19T10:09:02;17.50;99.90
51655;DHT22;37732;53.106;7.030;2023-09-19T10:11:46;17.60;99.90
51655;DHT22;37732;53.106;7.030;2023-09-19T10:14:15;17.70;99.90
51655;DHT22;37732;53.106;7.030;2023-09-19T10:16:48;17.70;99.90
51655;DHT22;37732;53.106;7.030;2023-09-19T10:19:39;17.70;99.90
51655;DHT22;37732;53.106;7.030;2023-09-19T10:22:12;17.70;99.90
51655;DHT22;37732;53.106;7.030;2023-09-19T10:24:39;17.70;99.90
51655;DHT22;37732;53.106;7.030;2023-09-19T10:27:06;17.70;99.90
51655;DHT22;37732;53.106;7.030;2023-09-19T10:29:36;17.80;99.90
51655;DHT22;37732;53.106;7.030;2023-09-19T10:32:05;17.90;99.90
51655;DHT22;37732;53.106;7.030;2023-09-19T10:34:36;17.90;99.90
51655;DHT22;37732;53.106;7.030;2023-09-19T10:37:02;17.90;99.90
51655;DHT22;37732;53.106;7.030;2023-09-19T10:39:32;17.90;99.90
51655;DHT22;37732;53.106;7.030;2023-09-19T10:42:02;17.90;99.90
51655;DHT22;37732;53.106;7.030;2023-09-19T10:44:32;17.90;99.90
51655;DHT22;37732;53.106;7.030;2023-09-19T10:46:58;17.90;99.90
51655;DHT22;37732;53.106;7.030;2023-09-19T10:49:25;18.00;99.90
51655;DHT22;37732;53.106;7.030;2023-09-19T10:51:56;18.00;99.90
51655;DHT22;37732;53.106;7.030;2023-09-19T10:54:27;18.10;99.90
51655;DHT22;37732;53.106;7.030;2023-09-19T10:56:55;18.20;99.90
51655;DHT22;37732;53.106;7.030;2023-09-19T10:59:24;18.30;99.90
51655;DHT22;37732;53.106;7.030;2023-09-19T11:01:55;18.30;99.90
51655;DHT22;37732;53.106;7.030;2023-09-19T11:04:27;18.40;99.90
51655;DHT22;37732;53.106;7.030;2023-09-19T11:09:51;18.60;99.90
51655;DHT22;37732;53.106;7.030;2023-09-19T11:14:55;18.60;99.90
51655;DHT22;37732;53.106;7.030;2023-09-19T11:30:47;19.00;99.90
51655;DHT22;37732;53.106;7.030;2023-09-19T11:36:10;18.90;99.90
51655;DHT22;37732;53.106;7.030;2023-09-19T11:41:40;18.80;99.90
51655;DHT22;37732;53.106;7.030;2023-09-19T11:49:19;19.30;99.90
51655;DHT22;37732;53.106;7.030;2023-09-19T11:51:51;19.30;99.90
51655;DHT22;37732;53.106;7.030;2023-09-19T11:54:19;19.40;99.90
51655;DHT22;37732;53.106;7.030;2023-09-19T11:56:53;19.40;99.90
51655;DHT22;37732;53.106;7.030;2023-09-19T11:59:23;19.10;99.90
51655;DHT22;37732;53.106;7.030;2023-09-19T12:01:54;18.90;99.90
51655;DHT22;37732;53.106;7.030;2023-09-19T12:04:37;18.70;99.90
51655;DHT22;37732;53.106;7.030;2023-09-19T12:07:14;18.70;99.90
51655;DHT22;37732;53.106;7.030;2023-09-19T12:09:46;18.70;99.90
51655;DHT22;37732;53.106;7.030;2023-09-19T12:12:20;18.70;99.90
51655;DHT22;37732;53.106;7.030;2023-09-19T12:14:49;18.80;99.90
51655;DHT22;37732;53.106;7.030;2023-09-19T12:17:18;18.80;99.90
51655;DHT22;37732;53.106;7.030;2023-09-19T12:19:52;18.80;99.90
51655;DHT22;37732;53.106;7.030;2023-09-19T12:22:18;18.80;99.90
51655;DHT22;37732;53.106;7.030;2023-09-19T12:24:46;18.70;99.90
51655;DHT22;37732;53.106;7.030;2023-09-19T12:27:12;18.70;99.90
51655;DHT22;37732;53.106;7.030;2023-09-19T12:29:43;18.70;99.90
51655;DHT22;37732;53.106;7.030;2023-09-19T12:32:09;18.70;99.90
51655;DHT22;37732;53.106;7.030;2023-09-19T12:34:36;18.60;99.90
51655;DHT22;37732;53.106;7.030;2023-09-19T12:37:11;18.60;99.90
51655;DHT22;37732;53.106;7.030;2023-09-19T12:39:44;18.60;99.90
51655;DHT22;37732;53.106;7.030;2023-09-19T12:42:15;18.60;99.90
51655;DHT22;37732;53.106;7.030;2023-09-19T12:44:46;18.50;99.90
51655;DHT22;37732;53.106;7.030;2023-09-19T12:47:16;18.30;99.90
51655;DHT22;37732;53.106;7.030;2023-09-19T12:52:48;18.20;99.90
51655;DHT22;37732;53.106;7.030;2023-09-19T12:55:30;18.10;99.90
51655;DHT22;37732;53.106;7.030;2023-09-19T12:58:11;18.10;99.90
51655;DHT22;37732;53.106;7.030;2023-09-19T13:00:41;18.10;99.90
51655;DHT22;37732;53.106;7.030;2023-09-19T13:03:11;18.10;99.90
51655;DHT22;37732;53.106;7.030;2023-09-19T13:13:40;18.50;99.90
51655;DHT22;37732;53.106;7.030;2023-09-19T13:16:07;18.50;99.90
51655;DHT22;37732;53.106;7.030;2023-09-19T13:18:42;18.40;99.90
51655;DHT22;37732;53.106;7.030;2023-09-19T13:21:10;18.30;99.90
51655;DHT22;37732;53.106;7.030;2023-09-19T13:23:42;18.30;99.90
51655;DHT22;37732;53.106;7.030;2023-09-19T13:26:09;18.20;99.90
51655;DHT22;37732;53.106;7.030;2023-09-19T13:28:38;18.10;99.90
51655;DHT22;37732;53.106;7.030;2023-09-19T13:31:04;18.10;99.90
51655;DHT22;37732;53.106;7.030;2023-09-19T13:33:31;18.00;99.90
51655;DHT22;37732;53.106;7.030;2023-09-19T13:35:57;18.00;99.90
51655;DHT22;37732;53.106;7.030;2023-09-19T13:38:23;18.00;99.90
51655;DHT22;37732;53.106;7.030;2023-09-19T13:40:49;18.00;99.90
51655;DHT22;37732;53.106;7.030;2023-09-19T13:43:18;18.00;99.90
51655;DHT22;37732;53.106;7.030;2023-09-19T13:45:43;18.00;99.90
51655;DHT22;37732;53.106;7.030;2023-09-19T13:48:09;18.00;99.90
51655;DHT22;37732;53.106;7.030;2023-09-19T13:50:37;18.00;99.90
51655;DHT22;37732;53.106;7.030;2023-09-19T13:53:08;18.00;99.90
51655;DHT22;37732;53.106;7.030;2023-09-19T13:55:33;17.90;99.90
51655;DHT22;37732;53.106;7.030;2023-09-19T13:57:59;18.00;99.90
51655;DHT22;37732;53.106;7.030;2023-09-19T14:00:25;18.00;99.90
51655;DHT22;37732;53.106;7.030;2023-09-19T14:02:51;18.00;99.90
51655;DHT22;37732;53.106;7.030;2023-09-19T14:05:17;18.00;99.90
51655;DHT22;37732;53.106;7.030;2023-09-19T14:07:44;18.00;99.90
51655;DHT22;37732;53.106;7.030;2023-09-19T14:10:11;18.00;99.90
51655;DHT22;37732;53.106;7.030;2023-09-19T14:12:38;18.00;99.90
51655;DHT22;37732;53.106;7.030;2023-09-19T14:15:06;17.90;99.90
51655;DHT22;37732;53.106;7.030;2023-09-19T14:17:33;17.90;99.90
51655;DHT22;37732;53.106;7.030;2023-09-19T14:19:59;17.90;99.90
51655;DHT22;37732;53.106;7.030;2023-09-19T14:22:25;17.90;99.90
51655;DHT22;37732;53.106;7.030;2023-09-19T14:24:50;17.90;99.90
51655;DHT22;37732;53.106;7.030;2023-09-19T14:27:17;17.90;99.90
51655;DHT22;37732;53.106;7.030;2023-09-19T14:29:43;18.00;99.90
51655;DHT22;37732;53.106;7.030;2023-09-19T14:32:08;18.00;99.90
51655;DHT22;37732;53.106;7.030;2023-09-19T14:34:34;18.10;99.90
51655;DHT22;37732;53.106;7.030;2023-09-19T14:37:02;18.20;99.90
51655;DHT22;37732;53.106;7.030;2023-09-19T14:39:27;18.30;99.90
51655;DHT22;37732;53.106;7.030;2023-09-19T14:41:54;18.30;99.90
51655;DHT22;37732;53.106;7.030;2023-09-19T14:44:19;18.30;99.90
51655;DHT22;37732;53.106;7.030;2023-09-19T14:46:45;18.30;99.90
51655;DHT22;37732;53.106;7.030;2023-09-19T14:49:11;18.30;99.90
51655;DHT22;37732;53.106;7.030;2023-09-19T14:51:38;18.30;99.90
51655;DHT22;37732;53.106;7.030;2023-09-19T14:54:05;18.30;99.90
51655;DHT22;37732;53.106;7.030;2023-09-19T14:56:32;18.30;99.90
51655;DHT22;37732;53.106;7.030;2023-09-19T14:58:58;18.30;99.90
51655;DHT22;37732;53.106;7.030;2023-09-19T15:01:24;18.30;99.90
51655;DHT22;37732;53.106;7.030;2023-09-19T15:03:49;18.20;99.90
51655;DHT22;37732;53.106;7.030;2023-09-19T15:06:15;18.30;99.90
51655;DHT22;37732;53.106;7.030;2023-09-19T15:08:44;18.20;99.90
51655;DHT22;37732;53.106;7.030;2023-09-19T15:11:22;18.20;99.90
51655;DHT22;37732;53.106;7.030;2023-09-19T15:13:51;18.20;99.90
51655;DHT22;37732;53.106;7.030;2023-09-19T15:16:17;18.20;99.90
51655;DHT22;37732;53.106;7.030;2023-09-19T15:18:44;18.20;99.90
51655;DHT22;37732;53.106;7.030;2023-09-19T15:21:13;18.20;99.90
51655;DHT22;37732;53.106;7.030;2023-09-19T15:23:40;18.20;99.90
51655;DHT22;37732;53.106;7.030;2023-09-19T15:26:08;18.10;99.90
51655;DHT22;37732;53.106;7.030;2023-09-19T15:28:34;18.20;99.90
51655;DHT22;37732;53.106;7.030;2023-09-19T15:31:10;18.20;99.90
51655;DHT22;37732;53.106;7.030;2023-09-19T15:33:37;18.20;99.90
51655;DHT22;37732;53.106;7.030;2023-09-19T15:36:06;18.10;99.90
51655;DHT22;37732;53.106;7.030;2023-09-19T15:41:39;18.00;99.90
51655;DHT22;37732;53.106;7.030;2023-09-19T15:44:13;18.00;99.90
51655;DHT22;37732;53.106;7.030;2023-09-19T15:46:39;17.90;99.90
51655;DHT22;37732;53.106;7.030;2023-09-19T15:49:04;17.80;99.90
51655;DHT22;37732;53.106;7.030;2023-09-19T15:51:30;17.80;99.90
51655;DHT22;37732;53.106;7.030;2023-09-19T15:53:56;17.80;99.90
51655;DHT22;37732;53.106;7.030;2023-09-19T15:56:23;17.70;99.90
51655;DHT22;37732;53.106;7.030;2023-09-19T15:58:54;17.70;99.90
51655;DHT22;37732;53.106;7.030;2023-09-19T16:01:20;17.70;99.90
51655;DHT22;37732;53.106;7.030;2023-09-19T16:03:49;17.70;99.90
51655;DHT22;37732;53.106;7.030;2023-09-19T16:06:19;17.80;99.90
51655;DHT22;37732;53.106;7.030;2023-09-19T16:08:47;17.70;99.90
51655;DHT22;37732;53.106;7.030;2023-09-19T16:11:13;17.70;99.90
51655;DHT22;37732;53.106;7.030;2023-09-19T16:13:40;17.70;99.90
51655;DHT22;37732;53.106;7.030;2023-09-19T16:16:12;17.70;99.90
51655;DHT22;37732;53.106;7.030;2023-09-19T16:18:39;17.70;99.90
51655;DHT22;37732;53.106;7.030;2023-09-19T16:21:05;17.70;99.90
51655;DHT22;37732;53.106;7.030;2023-09-19T16:23:33;17.70;99.90
51655;DHT22;37732;53.106;7.030;2023-09-19T16:26:09;17.70;99.90
51655;DHT22;37732;53.106;7.030;2023-09-19T16:28:39;17.70;99.90
51655;DHT22;37732;53.106;7.030;2023-09-19T16:31:06;17.70;99.90
51655;DHT22;37732;53.106;7.030;2023-09-19T16:33:33;17.70;99.90
51655;DHT22;37732;53.106;7.030;2023-09-19T16:36:00;17.70;99.90
51655;DHT22;37732;53.106;7.030;2023-09-19T16:38:27;17.70;99.90
51655;DHT22;37732;53.106;7.030;2023-09-19T16:40:56;17.70;99.90
51655;DHT22;37732;53.106;7.030;2023-09-19T16:43:26;17.70;99.90
51655;DHT22;37732;53.106;7.030;2023-09-19T16:45:56;17.70;99.90
51655;DHT22;37732;53.106;7.030;2023-09-19T16:48:23;17.70;99.90